sensor_id;sensor_type;location;lat;lon;timestamp;P1;durP1;ratioP1;P2;durP2;ratioP2
69744;SDS011;57015;50.120;-5.168;2023-05-06T00:00:12;17.65;;;3.72;;
69744;SDS011;57015;50.120;-5.168;2023-05-06T00:02:38;14.30;;;2.73;;
69744;SDS011;57015;50.120;-5.168;2023-05-06T00:05:04;14.55;;;2.78;;
69744;SDS011;57015;50.120;-5.168;2023-05-06T00:07:30;14.43;;;2.73;;
69744;SDS011;57015;50.120;-5.168;2023-05-06T00:09:55;10.75;;;2.35;;
69744;SDS011;57015;50.120;-5.168;2023-05-06T00:12:20;17.50;;;2.73;;
69744;SDS011;57015;50.120;-5.168;2023-05-06T00:14:46;20.33;;;3.30;;
69744;SDS011;57015;50.120;-5.168;2023-05-06T00:17:11;14.47;;;3.17;;
69744;SDS011;57015;50.120;-5.168;2023-05-06T00:19:36;26.77;;;3.70;;
69744;SDS011;57015;50.120;-5.168;2023-05-06T00:22:02;21.08;;;3.88;;
69744;SDS011;57015;50.120;-5.168;2023-05-06T00:24:28;22.67;;;4.30;;
69744;SDS011;57015;50.120;-5.168;2023-05-06T00:26:53;20.57;;;3.70;;
69744;SDS011;57015;50.120;-5.168;2023-05-06T00:29:18;16.77;;;3.03;;
69744;SDS011;57015;50.120;-5.168;2023-05-06T00:31:44;13.90;;;2.90;;
69744;SDS011;57015;50.120;-5.168;2023-05-06T00:34:09;13.70;;;3.33;;
69744;SDS011;57015;50.120;-5.168;2023-05-06T00:36:35;19.50;;;2.77;;
69744;SDS011;57015;50.120;-5.168;2023-05-06T00:39:01;14.23;;;2.60;;
69744;SDS011;57015;50.120;-5.168;2023-05-06T00:41:29;17.80;;;2.80;;
69744;SDS011;57015;50.120;-5.168;2023-05-06T00:43:55;17.30;;;2.88;;
69744;SDS011;57015;50.120;-5.168;2023-05-06T00:46:21;23.03;;;3.80;;
69744;SDS011;57015;50.120;-5.168;2023-05-06T00:48:46;15.47;;;3.07;;
69744;SDS011;57015;50.120;-5.168;2023-05-06T00:51:13;27.13;;;3.83;;
69744;SDS011;57015;50.120;-5.168;2023-05-06T00:53:38;20.98;;;3.67;;
69744;SDS011;57015;50.120;-5.168;2023-05-06T00:56:04;25.27;;;3.47;;
69744;SDS011;57015;50.120;-5.168;2023-05-06T00:58:30;23.83;;;4.80;;
69744;SDS011;57015;50.120;-5.168;2023-05-06T01:00:55;14.63;;;2.13;;
69744;SDS011;57015;50.120;-5.168;2023-05-06T01:03:21;17.00;;;3.37;;
69744;SDS011;57015;50.120;-5.168;2023-05-06T01:06:03;17.95;;;2.42;;
69744;SDS011;57015;50.120;-5.168;2023-05-06T01:08:36;19.70;;;2.92;;
69744;SDS011;57015;50.120;-5.168;2023-05-06T01:11:32;14.23;;;3.03;;
69744;SDS011;57015;50.120;-5.168;2023-05-06T01:14:19;14.40;;;3.00;;
69744;SDS011;57015;50.120;-5.168;2023-05-06T01:16:50;16.08;;;2.50;;
69744;SDS011;57015;50.120;-5.168;2023-05-06T01:19:28;12.38;;;2.00;;
69744;SDS011;57015;50.120;-5.168;2023-05-06T01:22:01;15.13;;;2.80;;
69744;SDS011;57015;50.120;-5.168;2023-05-06T01:24:36;13.37;;;2.37;;
69744;SDS011;57015;50.120;-5.168;2023-05-06T01:27:02;18.05;;;2.67;;
69744;SDS011;57015;50.120;-5.168;2023-05-06T01:29:28;14.10;;;2.07;;
69744;SDS011;57015;50.120;-5.168;2023-05-06T01:31:53;18.50;;;2.13;;
69744;SDS011;57015;50.120;-5.168;2023-05-06T01:34:25;14.93;;;2.50;;
69744;SDS011;57015;50.120;-5.168;2023-05-06T01:39:40;9.60;;;2.17;;
69744;SDS011;57015;50.120;-5.168;2023-05-06T01:42:06;12.65;;;1.92;;
69744;SDS011;57015;50.120;-5.168;2023-05-06T01:44:33;12.47;;;1.97;;
69744;SDS011;57015;50.120;-5.168;2023-05-06T01:47:01;9.32;;;1.70;;
69744;SDS011;57015;50.120;-5.168;2023-05-06T01:49:27;11.98;;;2.13;;
69744;SDS011;57015;50.120;-5.168;2023-05-06T01:51:53;10.37;;;1.90;;
69744;SDS011;57015;50.120;-5.168;2023-05-06T01:54:18;8.07;;;1.40;;
69744;SDS011;57015;50.120;-5.168;2023-05-06T01:56:44;10.82;;;1.95;;
69744;SDS011;57015;50.120;-5.168;2023-05-06T01:59:09;10.60;;;1.80;;
69744;SDS011;57015;50.120;-5.168;2023-05-06T02:01:35;7.00;;;1.20;;
69744;SDS011;57015;50.120;-5.168;2023-05-06T02:04:00;7.90;;;1.57;;
69744;SDS011;57015;50.120;-5.168;2023-05-06T02:06:25;8.07;;;1.45;;
69744;SDS011;57015;50.120;-5.168;2023-05-06T02:08:51;8.03;;;1.27;;
69744;SDS011;57015;50.120;-5.168;2023-05-06T02:11:16;6.00;;;1.23;;
69744;SDS011;57015;50.120;-5.168;2023-05-06T02:13:42;8.68;;;1.63;;
69744;SDS011;57015;50.120;-5.168;2023-05-06T02:16:08;4.20;;;0.77;;
69744;SDS011;57015;50.120;-5.168;2023-05-06T02:18:34;5.85;;;1.40;;
69744;SDS011;57015;50.120;-5.168;2023-05-06T02:20:59;5.23;;;0.90;;
69744;SDS011;57015;50.120;-5.168;2023-05-06T02:23:25;4.93;;;0.90;;
69744;SDS011;57015;50.120;-5.168;2023-05-06T02:25:50;4.33;;;0.63;;
69744;SDS011;57015;50.120;-5.168;2023-05-06T02:28:16;2.13;;;0.37;;
69744;SDS011;57015;50.120;-5.168;2023-05-06T02:30:42;4.83;;;0.70;;
69744;SDS011;57015;50.120;-5.168;2023-05-06T02:33:07;4.95;;;0.60;;
69744;SDS011;57015;50.120;-5.168;2023-05-06T02:35:32;4.13;;;0.73;;
69744;SDS011;57015;50.120;-5.168;2023-05-06T02:37:58;5.30;;;0.80;;
69744;SDS011;57015;50.120;-5.168;2023-05-06T02:40:23;3.70;;;0.60;;
69744;SDS011;57015;50.120;-5.168;2023-05-06T02:42:49;2.87;;;0.40;;
69744;SDS011;57015;50.120;-5.168;2023-05-06T02:45:14;1.63;;;0.30;;
69744;SDS011;57015;50.120;-5.168;2023-05-06T02:47:39;2.03;;;0.20;;
69744;SDS011;57015;50.120;-5.168;2023-05-06T02:50:05;1.67;;;0.30;;
69744;SDS011;57015;50.120;-5.168;2023-05-06T02:52:31;1.70;;;0.30;;
69744;SDS011;57015;50.120;-5.168;2023-05-06T02:54:57;0.88;;;0.10;;
69744;SDS011;57015;50.120;-5.168;2023-05-06T02:57:22;1.25;;;0.20;;
69744;SDS011;57015;50.120;-5.168;2023-05-06T02:59:48;2.80;;;0.43;;
69744;SDS011;57015;50.120;-5.168;2023-05-06T03:02:13;2.57;;;0.20;;
69744;SDS011;57015;50.120;-5.168;2023-05-06T03:04:39;2.33;;;0.33;;
69744;SDS011;57015;50.120;-5.168;2023-05-06T03:07:04;2.88;;;0.32;;
69744;SDS011;57015;50.120;-5.168;2023-05-06T03:09:30;1.47;;;0.30;;
69744;SDS011;57015;50.120;-5.168;2023-05-06T03:11:55;3.00;;;0.30;;
69744;SDS011;57015;50.120;-5.168;2023-05-06T03:14:21;2.53;;;0.40;;
69744;SDS011;57015;50.120;-5.168;2023-05-06T03:16:46;3.70;;;0.90;;
69744;SDS011;57015;50.120;-5.168;2023-05-06T03:19:12;2.10;;;0.60;;
69744;SDS011;57015;50.120;-5.168;2023-05-06T03:21:37;1.83;;;0.50;;
69744;SDS011;57015;50.120;-5.168;2023-05-06T03:24:03;3.43;;;0.60;;
69744;SDS011;57015;50.120;-5.168;2023-05-06T03:26:28;2.65;;;0.75;;
69744;SDS011;57015;50.120;-5.168;2023-05-06T03:28:54;2.10;;;0.40;;
69744;SDS011;57015;50.120;-5.168;2023-05-06T03:31:19;2.70;;;0.70;;
69744;SDS011;57015;50.120;-5.168;2023-05-06T03:33:45;4.18;;;0.68;;
69744;SDS011;57015;50.120;-5.168;2023-05-06T03:36:10;3.77;;;0.70;;
69744;SDS011;57015;50.120;-5.168;2023-05-06T03:38:38;1.70;;;0.57;;
69744;SDS011;57015;50.120;-5.168;2023-05-06T03:41:04;5.13;;;0.53;;
69744;SDS011;57015;50.120;-5.168;2023-05-06T03:43:29;3.28;;;0.40;;
69744;SDS011;57015;50.120;-5.168;2023-05-06T03:45:55;1.87;;;0.50;;
69744;SDS011;57015;50.120;-5.168;2023-05-06T03:48:20;4.60;;;0.40;;
69744;SDS011;57015;50.120;-5.168;2023-05-06T03:50:46;1.53;;;0.33;;
69744;SDS011;57015;50.120;-5.168;2023-05-06T03:53:11;1.13;;;0.30;;
69744;SDS011;57015;50.120;-5.168;2023-05-06T03:55:37;1.60;;;0.40;;
69744;SDS011;57015;50.120;-5.168;2023-05-06T03:58:02;1.87;;;0.37;;
69744;SDS011;57015;50.120;-5.168;2023-05-06T04:00:27;1.90;;;0.27;;
69744;SDS011;57015;50.120;-5.168;2023-05-06T04:02:53;2.40;;;0.40;;
69744;SDS011;57015;50.120;-5.168;2023-05-06T04:05:18;2.00;;;0.30;;
69744;SDS011;57015;50.120;-5.168;2023-05-06T04:07:44;1.73;;;0.20;;
69744;SDS011;57015;50.120;-5.168;2023-05-06T04:10:09;0.53;;;0.20;;
69744;SDS011;57015;50.120;-5.168;2023-05-06T04:12:35;1.43;;;0.20;;
69744;SDS011;57015;50.120;-5.168;2023-05-06T04:15:00;2.00;;;0.20;;
69744;SDS011;57015;50.120;-5.168;2023-05-06T04:17:25;2.47;;;0.50;;
69744;SDS011;57015;50.120;-5.168;2023-05-06T04:19:51;1.13;;;0.30;;
69744;SDS011;57015;50.120;-5.168;2023-05-06T04:22:17;1.52;;;0.20;;
69744;SDS011;57015;50.120;-5.168;2023-05-06T04:24:43;0.80;;;0.20;;
69744;SDS011;57015;50.120;-5.168;2023-05-06T04:27:09;2.00;;;0.20;;
69744;SDS011;57015;50.120;-5.168;2023-05-06T04:29:35;1.35;;;0.20;;
69744;SDS011;57015;50.120;-5.168;2023-05-06T04:32:01;1.38;;;0.30;;
69744;SDS011;57015;50.120;-5.168;2023-05-06T04:34:27;1.83;;;0.10;;
69744;SDS011;57015;50.120;-5.168;2023-05-06T04:36:52;1.38;;;0.10;;
69744;SDS011;57015;50.120;-5.168;2023-05-06T04:39:18;1.10;;;0.20;;
69744;SDS011;57015;50.120;-5.168;2023-05-06T04:41:44;0.68;;;0.10;;
69744;SDS011;57015;50.120;-5.168;2023-05-06T04:44:10;3.93;;;0.23;;
69744;SDS011;57015;50.120;-5.168;2023-05-06T04:46:35;1.33;;;0.30;;
69744;SDS011;57015;50.120;-5.168;2023-05-06T04:49:01;1.53;;;0.20;;
69744;SDS011;57015;50.120;-5.168;2023-05-06T04:51:26;2.10;;;0.20;;
69744;SDS011;57015;50.120;-5.168;2023-05-06T04:53:52;1.80;;;0.23;;
69744;SDS011;57015;50.120;-5.168;2023-05-06T04:56:17;0.70;;;0.20;;
69744;SDS011;57015;50.120;-5.168;2023-05-06T04:58:42;0.65;;;0.10;;
69744;SDS011;57015;50.120;-5.168;2023-05-06T05:01:08;1.60;;;0.50;;
69744;SDS011;57015;50.120;-5.168;2023-05-06T05:03:34;1.38;;;0.40;;
69744;SDS011;57015;50.120;-5.168;2023-05-06T05:06:00;2.60;;;0.67;;
69744;SDS011;57015;50.120;-5.168;2023-05-06T05:08:25;1.57;;;0.33;;
69744;SDS011;57015;50.120;-5.168;2023-05-06T05:10:51;1.67;;;0.20;;
69744;SDS011;57015;50.120;-5.168;2023-05-06T05:13:16;2.00;;;0.47;;
69744;SDS011;57015;50.120;-5.168;2023-05-06T05:15:43;2.00;;;0.30;;
69744;SDS011;57015;50.120;-5.168;2023-05-06T05:18:08;2.45;;;0.55;;
69744;SDS011;57015;50.120;-5.168;2023-05-06T05:20:34;1.80;;;0.60;;
69744;SDS011;57015;50.120;-5.168;2023-05-06T05:22:59;2.20;;;0.80;;
69744;SDS011;57015;50.120;-5.168;2023-05-06T05:25:24;5.37;;;1.30;;
69744;SDS011;57015;50.120;-5.168;2023-05-06T05:27:50;5.97;;;2.30;;
69744;SDS011;57015;50.120;-5.168;2023-05-06T05:30:15;6.10;;;1.50;;
69744;SDS011;57015;50.120;-5.168;2023-05-06T05:32:41;5.13;;;1.70;;
69744;SDS011;57015;50.120;-5.168;2023-05-06T05:35:06;6.43;;;1.97;;
69744;SDS011;57015;50.120;-5.168;2023-05-06T05:37:34;7.00;;;1.98;;
69744;SDS011;57015;50.120;-5.168;2023-05-06T05:40:00;7.28;;;2.33;;
69744;SDS011;57015;50.120;-5.168;2023-05-06T05:42:25;8.50;;;2.43;;
69744;SDS011;57015;50.120;-5.168;2023-05-06T05:44:51;7.72;;;2.35;;
69744;SDS011;57015;50.120;-5.168;2023-05-06T05:47:17;7.80;;;2.33;;
69744;SDS011;57015;50.120;-5.168;2023-05-06T05:49:42;10.37;;;2.63;;
69744;SDS011;57015;50.120;-5.168;2023-05-06T05:52:07;7.60;;;2.90;;
69744;SDS011;57015;50.120;-5.168;2023-05-06T05:54:34;10.68;;;3.50;;
69744;SDS011;57015;50.120;-5.168;2023-05-06T05:56:59;9.57;;;3.13;;
69744;SDS011;57015;50.120;-5.168;2023-05-06T05:59:25;8.30;;;2.70;;
69744;SDS011;57015;50.120;-5.168;2023-05-06T06:01:51;8.70;;;2.55;;
69744;SDS011;57015;50.120;-5.168;2023-05-06T06:04:17;10.10;;;2.93;;
69744;SDS011;57015;50.120;-5.168;2023-05-06T06:06:42;10.00;;;2.60;;
69744;SDS011;57015;50.120;-5.168;2023-05-06T06:09:08;9.30;;;2.53;;
69744;SDS011;57015;50.120;-5.168;2023-05-06T06:11:33;9.40;;;3.30;;
69744;SDS011;57015;50.120;-5.168;2023-05-06T06:13:59;9.17;;;2.53;;
69744;SDS011;57015;50.120;-5.168;2023-05-06T06:16:25;7.57;;;2.30;;
69744;SDS011;57015;50.120;-5.168;2023-05-06T06:18:50;9.60;;;3.00;;
69744;SDS011;57015;50.120;-5.168;2023-05-06T06:21:15;8.53;;;2.80;;
69744;SDS011;57015;50.120;-5.168;2023-05-06T06:23:41;8.73;;;3.10;;
69744;SDS011;57015;50.120;-5.168;2023-05-06T06:26:06;8.55;;;2.58;;
69744;SDS011;57015;50.120;-5.168;2023-05-06T06:28:31;8.17;;;2.43;;
69744;SDS011;57015;50.120;-5.168;2023-05-06T06:30:57;7.70;;;2.70;;
69744;SDS011;57015;50.120;-5.168;2023-05-06T06:33:22;7.40;;;2.53;;
69744;SDS011;57015;50.120;-5.168;2023-05-06T06:35:48;7.90;;;2.60;;
69744;SDS011;57015;50.120;-5.168;2023-05-06T06:38:13;11.03;;;3.10;;
69744;SDS011;57015;50.120;-5.168;2023-05-06T06:40:38;9.87;;;3.10;;
69744;SDS011;57015;50.120;-5.168;2023-05-06T06:43:04;8.90;;;3.10;;
69744;SDS011;57015;50.120;-5.168;2023-05-06T06:45:29;8.80;;;3.40;;
69744;SDS011;57015;50.120;-5.168;2023-05-06T06:47:54;8.23;;;2.80;;
69744;SDS011;57015;50.120;-5.168;2023-05-06T06:50:20;10.23;;;3.20;;
69744;SDS011;57015;50.120;-5.168;2023-05-06T06:52:45;5.53;;;1.97;;
69744;SDS011;57015;50.120;-5.168;2023-05-06T06:55:10;7.23;;;2.17;;
69744;SDS011;57015;50.120;-5.168;2023-05-06T06:57:38;8.68;;;2.60;;
69744;SDS011;57015;50.120;-5.168;2023-05-06T07:00:05;7.72;;;2.53;;
69744;SDS011;57015;50.120;-5.168;2023-05-06T07:02:30;5.85;;;1.90;;
69744;SDS011;57015;50.120;-5.168;2023-05-06T07:04:56;2.83;;;0.67;;
69744;SDS011;57015;50.120;-5.168;2023-05-06T07:07:21;2.90;;;0.80;;
69744;SDS011;57015;50.120;-5.168;2023-05-06T07:09:46;3.10;;;0.73;;
69744;SDS011;57015;50.120;-5.168;2023-05-06T07:12:12;2.80;;;0.70;;
69744;SDS011;57015;50.120;-5.168;2023-05-06T07:14:37;3.53;;;0.67;;
69744;SDS011;57015;50.120;-5.168;2023-05-06T07:17:03;4.30;;;0.60;;
69744;SDS011;57015;50.120;-5.168;2023-05-06T07:19:28;1.93;;;0.50;;
69744;SDS011;57015;50.120;-5.168;2023-05-06T07:21:55;1.80;;;0.50;;
69744;SDS011;57015;50.120;-5.168;2023-05-06T07:24:20;2.70;;;0.47;;
69744;SDS011;57015;50.120;-5.168;2023-05-06T07:26:46;1.73;;;0.50;;
69744;SDS011;57015;50.120;-5.168;2023-05-06T07:29:11;2.55;;;0.40;;
69744;SDS011;57015;50.120;-5.168;2023-05-06T07:31:37;1.03;;;0.30;;
69744;SDS011;57015;50.120;-5.168;2023-05-06T07:34:02;1.30;;;0.30;;
69744;SDS011;57015;50.120;-5.168;2023-05-06T07:36:28;1.30;;;0.47;;
69744;SDS011;57015;50.120;-5.168;2023-05-06T07:38:53;1.80;;;0.40;;
69744;SDS011;57015;50.120;-5.168;2023-05-06T07:41:19;1.00;;;0.30;;
69744;SDS011;57015;50.120;-5.168;2023-05-06T07:43:45;1.20;;;0.30;;
69744;SDS011;57015;50.120;-5.168;2023-05-06T07:46:10;1.23;;;0.33;;
69744;SDS011;57015;50.120;-5.168;2023-05-06T07:48:35;3.80;;;0.50;;
69744;SDS011;57015;50.120;-5.168;2023-05-06T07:51:01;2.30;;;0.73;;
69744;SDS011;57015;50.120;-5.168;2023-05-06T07:53:27;2.72;;;1.17;;
69744;SDS011;57015;50.120;-5.168;2023-05-06T07:55:52;3.57;;;0.73;;
69744;SDS011;57015;50.120;-5.168;2023-05-06T07:58:20;2.58;;;1.00;;
69744;SDS011;57015;50.120;-5.168;2023-05-06T08:00:45;2.53;;;1.03;;
69744;SDS011;57015;50.120;-5.168;2023-05-06T08:03:10;2.77;;;0.80;;
69744;SDS011;57015;50.120;-5.168;2023-05-06T08:05:36;2.33;;;0.80;;
69744;SDS011;57015;50.120;-5.168;2023-05-06T08:08:01;2.10;;;0.70;;
69744;SDS011;57015;50.120;-5.168;2023-05-06T08:10:26;3.85;;;1.10;;
69744;SDS011;57015;50.120;-5.168;2023-05-06T08:12:52;3.83;;;0.90;;
69744;SDS011;57015;50.120;-5.168;2023-05-06T08:15:17;2.10;;;0.70;;
69744;SDS011;57015;50.120;-5.168;2023-05-06T08:17:43;1.73;;;0.70;;
69744;SDS011;57015;50.120;-5.168;2023-05-06T08:20:08;1.90;;;0.60;;
69744;SDS011;57015;50.120;-5.168;2023-05-06T08:22:34;2.50;;;0.90;;
69744;SDS011;57015;50.120;-5.168;2023-05-06T08:25:00;1.40;;;0.67;;
69744;SDS011;57015;50.120;-5.168;2023-05-06T08:27:25;1.60;;;0.68;;
69744;SDS011;57015;50.120;-5.168;2023-05-06T08:29:51;1.90;;;0.70;;
69744;SDS011;57015;50.120;-5.168;2023-05-06T08:32:16;1.30;;;0.60;;
69744;SDS011;57015;50.120;-5.168;2023-05-06T08:34:42;2.30;;;1.07;;
69744;SDS011;57015;50.120;-5.168;2023-05-06T08:37:07;1.50;;;0.63;;
69744;SDS011;57015;50.120;-5.168;2023-05-06T08:39:32;1.20;;;0.50;;
69744;SDS011;57015;50.120;-5.168;2023-05-06T08:41:58;2.20;;;0.90;;
69744;SDS011;57015;50.120;-5.168;2023-05-06T08:44:26;2.20;;;0.80;;
69744;SDS011;57015;50.120;-5.168;2023-05-06T08:46:51;3.05;;;0.70;;
69744;SDS011;57015;50.120;-5.168;2023-05-06T08:49:17;2.00;;;0.70;;
69744;SDS011;57015;50.120;-5.168;2023-05-06T08:51:43;2.93;;;0.60;;
69744;SDS011;57015;50.120;-5.168;2023-05-06T08:54:09;3.33;;;1.23;;
69744;SDS011;57015;50.120;-5.168;2023-05-06T08:56:37;2.83;;;1.30;;
69744;SDS011;57015;50.120;-5.168;2023-05-06T08:59:03;3.23;;;0.70;;
69744;SDS011;57015;50.120;-5.168;2023-05-06T09:01:33;3.22;;;1.27;;
69744;SDS011;57015;50.120;-5.168;2023-05-06T09:03:58;3.90;;;1.05;;
69744;SDS011;57015;50.120;-5.168;2023-05-06T09:06:24;3.47;;;1.33;;
69744;SDS011;57015;50.120;-5.168;2023-05-06T09:08:51;3.80;;;1.65;;
69744;SDS011;57015;50.120;-5.168;2023-05-06T09:13:48;3.30;;;1.80;;
69744;SDS011;57015;50.120;-5.168;2023-05-06T09:16:27;5.85;;;2.85;;
69744;SDS011;57015;50.120;-5.168;2023-05-06T09:18:53;4.93;;;3.22;;
69744;SDS011;57015;50.120;-5.168;2023-05-06T09:21:19;5.50;;;3.00;;
69744;SDS011;57015;50.120;-5.168;2023-05-06T09:23:44;5.95;;;2.38;;
69744;SDS011;57015;50.120;-5.168;2023-05-06T09:26:10;5.47;;;2.70;;
69744;SDS011;57015;50.120;-5.168;2023-05-06T09:28:35;3.63;;;2.20;;
69744;SDS011;57015;50.120;-5.168;2023-05-06T09:31:00;5.40;;;1.87;;
69744;SDS011;57015;50.120;-5.168;2023-05-06T09:33:26;3.92;;;1.70;;
69744;SDS011;57015;50.120;-5.168;2023-05-06T09:35:51;2.73;;;1.40;;
69744;SDS011;57015;50.120;-5.168;2023-05-06T09:38:17;2.87;;;1.63;;
69744;SDS011;57015;50.120;-5.168;2023-05-06T09:40:42;2.80;;;1.20;;
69744;SDS011;57015;50.120;-5.168;2023-05-06T09:43:08;4.53;;;1.10;;
69744;SDS011;57015;50.120;-5.168;2023-05-06T09:45:34;2.78;;;1.20;;
69744;SDS011;57015;50.120;-5.168;2023-05-06T09:48:00;3.17;;;1.00;;
69744;SDS011;57015;50.120;-5.168;2023-05-06T09:50:26;2.23;;;0.77;;
69744;SDS011;57015;50.120;-5.168;2023-05-06T09:52:52;1.77;;;0.50;;
69744;SDS011;57015;50.120;-5.168;2023-05-06T09:55:20;4.47;;;0.68;;
69744;SDS011;57015;50.120;-5.168;2023-05-06T09:57:47;3.10;;;0.43;;
69744;SDS011;57015;50.120;-5.168;2023-05-06T10:00:13;1.08;;;0.30;;
69744;SDS011;57015;50.120;-5.168;2023-05-06T10:02:42;1.97;;;0.40;;
69744;SDS011;57015;50.120;-5.168;2023-05-06T10:05:08;1.40;;;0.32;;
69744;SDS011;57015;50.120;-5.168;2023-05-06T10:07:35;1.17;;;0.43;;
69744;SDS011;57015;50.120;-5.168;2023-05-06T10:10:01;2.05;;;0.40;;
69744;SDS011;57015;50.120;-5.168;2023-05-06T10:12:31;3.40;;;0.40;;
69744;SDS011;57015;50.120;-5.168;2023-05-06T10:14:56;1.65;;;0.30;;
69744;SDS011;57015;50.120;-5.168;2023-05-06T10:17:22;0.60;;;0.20;;
69744;SDS011;57015;50.120;-5.168;2023-05-06T10:19:49;0.70;;;0.20;;
69744;SDS011;57015;50.120;-5.168;2023-05-06T10:25:04;1.00;;;0.40;;
69744;SDS011;57015;50.120;-5.168;2023-05-06T10:27:34;1.30;;;0.32;;
69744;SDS011;57015;50.120;-5.168;2023-05-06T10:30:04;2.17;;;0.20;;
69744;SDS011;57015;50.120;-5.168;2023-05-06T10:32:31;1.80;;;0.20;;
69744;SDS011;57015;50.120;-5.168;2023-05-06T10:34:59;4.10;;;0.30;;
69744;SDS011;57015;50.120;-5.168;2023-05-06T10:37:30;0.85;;;0.32;;
69744;SDS011;57015;50.120;-5.168;2023-05-06T10:39:56;1.50;;;0.30;;
69744;SDS011;57015;50.120;-5.168;2023-05-06T10:42:26;1.17;;;0.28;;
69744;SDS011;57015;50.120;-5.168;2023-05-06T10:44:59;2.10;;;0.30;;
69744;SDS011;57015;50.120;-5.168;2023-05-06T10:47:27;1.88;;;0.30;;
69744;SDS011;57015;50.120;-5.168;2023-05-06T10:52:54;0.68;;;0.30;;
69744;SDS011;57015;50.120;-5.168;2023-05-06T10:57:56;3.72;;;0.40;;
69744;SDS011;57015;50.120;-5.168;2023-05-06T11:00:25;1.90;;;0.52;;
69744;SDS011;57015;50.120;-5.168;2023-05-06T11:02:55;1.52;;;0.20;;
69744;SDS011;57015;50.120;-5.168;2023-05-06T11:05:21;1.58;;;0.30;;
69744;SDS011;57015;50.120;-5.168;2023-05-06T11:07:48;1.27;;;0.30;;
69744;SDS011;57015;50.120;-5.168;2023-05-06T11:10:16;2.90;;;0.30;;
69744;SDS011;57015;50.120;-5.168;2023-05-06T11:12:55;1.83;;;0.30;;
69744;SDS011;57015;50.120;-5.168;2023-05-06T11:15:24;1.67;;;0.40;;
69744;SDS011;57015;50.120;-5.168;2023-05-06T11:26:16;2.85;;;0.30;;
69744;SDS011;57015;50.120;-5.168;2023-05-06T11:28:42;3.13;;;0.50;;
69744;SDS011;57015;50.120;-5.168;2023-05-06T11:31:09;1.00;;;0.30;;
69744;SDS011;57015;50.120;-5.168;2023-05-06T11:33:36;1.20;;;0.30;;
69744;SDS011;57015;50.120;-5.168;2023-05-06T11:36:05;1.45;;;0.20;;
69744;SDS011;57015;50.120;-5.168;2023-05-06T11:41:16;0.70;;;0.20;;
69744;SDS011;57015;50.120;-5.168;2023-05-06T11:43:49;1.17;;;0.50;;
69744;SDS011;57015;50.120;-5.168;2023-05-06T11:46:16;1.30;;;0.30;;
69744;SDS011;57015;50.120;-5.168;2023-05-06T11:48:42;1.77;;;0.22;;
69744;SDS011;57015;50.120;-5.168;2023-05-06T11:51:08;2.30;;;0.77;;
69744;SDS011;57015;50.120;-5.168;2023-05-06T11:53:33;2.20;;;0.50;;
69744;SDS011;57015;50.120;-5.168;2023-05-06T11:55:58;3.88;;;0.73;;
69744;SDS011;57015;50.120;-5.168;2023-05-06T11:58:25;1.40;;;0.30;;
69744;SDS011;57015;50.120;-5.168;2023-05-06T12:00:53;1.17;;;0.50;;
69744;SDS011;57015;50.120;-5.168;2023-05-06T12:03:20;1.40;;;0.50;;
69744;SDS011;57015;50.120;-5.168;2023-05-06T12:05:46;1.73;;;0.70;;
69744;SDS011;57015;50.120;-5.168;2023-05-06T12:08:12;1.90;;;0.45;;
69744;SDS011;57015;50.120;-5.168;2023-05-06T12:10:38;1.67;;;0.57;;
69744;SDS011;57015;50.120;-5.168;2023-05-06T12:13:04;2.30;;;0.80;;
69744;SDS011;57015;50.120;-5.168;2023-05-06T12:15:30;2.83;;;0.40;;
69744;SDS011;57015;50.120;-5.168;2023-05-06T12:17:57;3.22;;;0.55;;
69744;SDS011;57015;50.120;-5.168;2023-05-06T12:20:23;3.87;;;1.20;;
69744;SDS011;57015;50.120;-5.168;2023-05-06T12:23:04;1.50;;;0.30;;
69744;SDS011;57015;50.120;-5.168;2023-05-06T12:25:34;1.75;;;0.65;;
69744;SDS011;57015;50.120;-5.168;2023-05-06T12:27:59;2.80;;;0.57;;
69744;SDS011;57015;50.120;-5.168;2023-05-06T12:30:31;2.53;;;0.47;;
69744;SDS011;57015;50.120;-5.168;2023-05-06T12:32:58;1.17;;;0.30;;
69744;SDS011;57015;50.120;-5.168;2023-05-06T12:35:24;1.73;;;0.22;;
69744;SDS011;57015;50.120;-5.168;2023-05-06T12:37:51;2.20;;;0.60;;
69744;SDS011;57015;50.120;-5.168;2023-05-06T12:40:16;3.80;;;0.90;;
69744;SDS011;57015;50.120;-5.168;2023-05-06T12:42:42;1.07;;;0.50;;
69744;SDS011;57015;50.120;-5.168;2023-05-06T12:45:16;2.63;;;0.40;;
69744;SDS011;57015;50.120;-5.168;2023-05-06T12:47:50;1.47;;;0.40;;
69744;SDS011;57015;50.120;-5.168;2023-05-06T12:50:29;1.38;;;0.22;;
69744;SDS011;57015;50.120;-5.168;2023-05-06T12:52:54;2.65;;;0.52;;
69744;SDS011;57015;50.120;-5.168;2023-05-06T12:55:20;3.63;;;0.47;;
69744;SDS011;57015;50.120;-5.168;2023-05-06T12:57:47;4.10;;;0.50;;
69744;SDS011;57015;50.120;-5.168;2023-05-06T13:00:13;1.33;;;0.30;;
69744;SDS011;57015;50.120;-5.168;2023-05-06T13:02:40;1.90;;;0.40;;
69744;SDS011;57015;50.120;-5.168;2023-05-06T13:05:05;2.42;;;0.55;;
69744;SDS011;57015;50.120;-5.168;2023-05-06T13:07:31;2.43;;;0.40;;
69744;SDS011;57015;50.120;-5.168;2023-05-06T13:09:56;1.07;;;0.30;;
69744;SDS011;57015;50.120;-5.168;2023-05-06T13:12:21;1.17;;;0.30;;
69744;SDS011;57015;50.120;-5.168;2023-05-06T13:14:47;2.50;;;0.50;;
69744;SDS011;57015;50.120;-5.168;2023-05-06T13:17:12;1.47;;;0.30;;
69744;SDS011;57015;50.120;-5.168;2023-05-06T13:19:41;2.28;;;0.30;;
69744;SDS011;57015;50.120;-5.168;2023-05-06T13:22:06;0.65;;;0.20;;
69744;SDS011;57015;50.120;-5.168;2023-05-06T13:24:32;2.40;;;0.30;;
69744;SDS011;57015;50.120;-5.168;2023-05-06T13:27:00;1.00;;;0.30;;
69744;SDS011;57015;50.120;-5.168;2023-05-06T13:29:26;1.98;;;0.30;;
69744;SDS011;57015;50.120;-5.168;2023-05-06T13:31:52;2.20;;;0.30;;
69744;SDS011;57015;50.120;-5.168;2023-05-06T13:34:18;3.43;;;0.40;;
69744;SDS011;57015;50.120;-5.168;2023-05-06T13:36:43;1.13;;;0.30;;
69744;SDS011;57015;50.120;-5.168;2023-05-06T13:39:10;1.37;;;0.30;;
69744;SDS011;57015;50.120;-5.168;2023-05-06T13:41:36;1.42;;;0.32;;
69744;SDS011;57015;50.120;-5.168;2023-05-06T13:44:02;1.20;;;0.20;;
69744;SDS011;57015;50.120;-5.168;2023-05-06T13:46:27;1.25;;;0.32;;
69744;SDS011;57015;50.120;-5.168;2023-05-06T13:48:53;2.30;;;0.30;;
69744;SDS011;57015;50.120;-5.168;2023-05-06T13:51:18;1.70;;;0.30;;
69744;SDS011;57015;50.120;-5.168;2023-05-06T13:53:44;0.83;;;0.20;;
69744;SDS011;57015;50.120;-5.168;2023-05-06T13:56:09;2.08;;;0.40;;
69744;SDS011;57015;50.120;-5.168;2023-05-06T13:58:35;2.07;;;0.40;;
69744;SDS011;57015;50.120;-5.168;2023-05-06T14:01:00;1.63;;;0.30;;
69744;SDS011;57015;50.120;-5.168;2023-05-06T14:03:27;1.98;;;0.30;;
69744;SDS011;57015;50.120;-5.168;2023-05-06T14:05:53;2.07;;;0.20;;
69744;SDS011;57015;50.120;-5.168;2023-05-06T14:08:18;1.52;;;0.30;;
69744;SDS011;57015;50.120;-5.168;2023-05-06T14:10:44;1.87;;;0.30;;
69744;SDS011;57015;50.120;-5.168;2023-05-06T14:13:09;1.73;;;0.60;;
69744;SDS011;57015;50.120;-5.168;2023-05-06T14:15:35;2.05;;;0.45;;
69744;SDS011;57015;50.120;-5.168;2023-05-06T14:18:01;1.83;;;0.40;;
69744;SDS011;57015;50.120;-5.168;2023-05-06T14:20:28;2.33;;;0.50;;
69744;SDS011;57015;50.120;-5.168;2023-05-06T14:22:53;2.07;;;0.40;;
69744;SDS011;57015;50.120;-5.168;2023-05-06T14:25:18;1.25;;;0.30;;
69744;SDS011;57015;50.120;-5.168;2023-05-06T14:27:50;2.77;;;0.60;;
69744;SDS011;57015;50.120;-5.168;2023-05-06T14:30:16;2.10;;;0.60;;
69744;SDS011;57015;50.120;-5.168;2023-05-06T14:32:41;2.00;;;0.40;;
69744;SDS011;57015;50.120;-5.168;2023-05-06T14:35:07;3.30;;;0.50;;
69744;SDS011;57015;50.120;-5.168;2023-05-06T14:37:33;4.43;;;0.35;;
69744;SDS011;57015;50.120;-5.168;2023-05-06T14:39:58;3.77;;;0.50;;
69744;SDS011;57015;50.120;-5.168;2023-05-06T14:42:24;2.87;;;0.47;;
69744;SDS011;57015;50.120;-5.168;2023-05-06T14:44:49;1.20;;;0.37;;
69744;SDS011;57015;50.120;-5.168;2023-05-06T14:47:15;5.10;;;0.77;;
69744;SDS011;57015;50.120;-5.168;2023-05-06T14:49:40;3.80;;;0.40;;
69744;SDS011;57015;50.120;-5.168;2023-05-06T14:52:06;4.00;;;0.77;;